createdAt,value
2019-05-14T00:04:47.084Z,1.62
2019-05-14T00:09:52.679Z,2.20
2019-05-14T00:14:58.965Z,1.90
2019-05-14T00:20:09.854Z,2.17
2019-05-14T00:25:14.855Z,1.98
2019-05-14T00:30:22.067Z,1.95
2019-05-14T00:35:28.025Z,1.92
2019-05-14T00:40:34.101Z,1.85
2019-05-14T00:45:41.814Z,2.30
2019-05-14T00:50:47.432Z,1.50
2019-05-14T00:55:53.221Z,1.82
2019-05-14T01:00:58.731Z,1.80
2019-05-14T01:06:04.574Z,1.65
2019-05-14T01:11:11.797Z,1.80
2019-05-14T01:16:18.162Z,2.02
2019-05-14T01:21:24.625Z,1.40
2019-05-14T01:26:31.055Z,1.65
2019-05-14T01:31:37.120Z,1.70
2019-05-14T01:36:43.408Z,1.60
2019-05-14T01:41:51.517Z,2.10
2019-05-14T01:46:56.783Z,1.70
2019-05-14T01:52:03.044Z,1.65
2019-05-14T01:57:11.289Z,1.60
2019-05-14T02:02:17.997Z,1.37
2019-05-14T02:07:23.524Z,1.65
2019-05-14T02:12:31.392Z,1.60
2019-05-14T02:17:35.936Z,1.52
2019-05-14T02:22:42.004Z,1.12
2019-05-14T02:27:47.688Z,1.75
2019-05-14T02:32:53.335Z,1.50
2019-05-14T02:37:59.737Z,1.47
2019-05-14T02:43:05.723Z,1.40
2019-05-14T02:48:11.322Z,1.30
2019-05-14T02:53:19.755Z,1.55
2019-05-14T02:58:25.666Z,1.40
2019-05-14T03:03:31.887Z,1.50
2019-05-14T03:08:39.082Z,1.52
2019-05-14T03:13:45.482Z,1.20
2019-05-14T03:18:51.577Z,1.30
2019-05-14T03:24:00.820Z,1.50
2019-05-14T03:29:09.186Z,1.35
2019-05-14T03:34:14.410Z,1.30
2019-05-14T03:39:20.282Z,1.20
2019-05-14T03:44:28.905Z,1.50
2019-05-14T03:49:33.713Z,1.70
2019-05-14T03:54:40.681Z,1.30
2019-05-14T03:59:49.942Z,1.32
2019-05-14T04:04:55.155Z,1.50
2019-05-14T04:10:01.489Z,1.12
2019-05-14T04:15:09.582Z,1.20
2019-05-14T04:20:14.353Z,1.32
2019-05-14T04:25:20.493Z,1.12
2019-05-14T04:30:28.863Z,1.02
2019-05-14T04:35:35.857Z,1.30
2019-05-14T04:40:41.583Z,1.12
2019-05-14T04:45:49.744Z,1.30
2019-05-14T04:51:00.334Z,1.10
2019-05-14T04:56:09.771Z,1.12
2019-05-14T05:01:15.182Z,0.93
2019-05-14T05:06:21.052Z,1.10
2019-05-14T05:11:29.108Z,1.50
2019-05-14T05:16:34.842Z,1.20
2019-05-14T05:21:40.892Z,1.30
2019-05-14T05:26:48.549Z,1.50
2019-05-14T05:31:54.487Z,1.47
2019-05-14T05:37:02.962Z,1.47
2019-05-14T05:42:09.239Z,1.80
2019-05-14T05:47:15.472Z,1.40
2019-05-14T05:52:22.084Z,1.80
2019-05-14T05:57:28.922Z,1.47
2019-05-14T06:02:34.552Z,1.62
2019-05-14T06:07:42.520Z,1.50
2019-05-14T06:12:49.202Z,1.47
2019-05-14T06:18:11.627Z,1.40
2019-05-14T06:23:03.193Z,1.47
2019-05-14T06:28:09.604Z,1.50
2019-05-14T06:33:16.340Z,1.42
2019-05-14T06:38:22.738Z,1.20
2019-05-14T06:43:29.341Z,1.80
2019-05-14T06:48:35.843Z,1.22
2019-05-14T06:53:41.702Z,1.35
2019-05-14T06:58:49.126Z,1.60
2019-05-14T07:03:57.962Z,1.37
2019-05-14T07:09:05.202Z,1.55
2019-05-14T07:14:11.931Z,1.40
2019-05-14T07:19:19.170Z,1.40
2019-05-14T07:24:25.293Z,1.35
2019-05-14T07:29:31.692Z,1.32
2019-05-14T07:34:38.807Z,1.40
2019-05-14T07:39:45.272Z,1.12
2019-05-14T07:44:51.382Z,1.10
2019-05-14T07:49:59.104Z,1.62
2019-05-14T07:55:05.512Z,1.22
2019-05-14T08:00:14.692Z,1.00
2019-05-14T08:05:20.902Z,1.40
2019-05-14T08:10:28.869Z,1.10
2019-05-14T08:15:35.204Z,1.40
2019-05-14T08:20:40.570Z,1.60
2019-05-14T08:25:48.103Z,1.15
2019-05-14T08:30:54.305Z,1.67
2019-05-14T08:36:00.436Z,1.07
2019-05-14T08:41:08.313Z,1.05
2019-05-14T08:46:14.494Z,1.10
2019-05-14T08:51:20.713Z,1.05
2019-05-14T08:56:28.122Z,0.98
2019-05-14T09:01:33.071Z,1.85
2019-05-14T09:06:38.773Z,2.17
2019-05-14T09:11:46.079Z,1.57
2019-05-14T09:16:51.619Z,1.62
2019-05-14T09:21:58.937Z,1.47
2019-05-14T09:27:05.575Z,1.70
2019-05-14T09:32:10.794Z,1.57
2019-05-14T09:37:19.021Z,1.57
2019-05-14T09:42:23.500Z,1.30
2019-05-14T09:47:29.155Z,1.60
2019-05-14T09:52:35.362Z,1.90
2019-05-14T09:57:40.783Z,2.00
2019-05-14T10:02:49.238Z,2.05
2019-05-14T10:07:53.662Z,1.92
2019-05-14T10:13:01.595Z,1.60
2019-05-14T10:18:11.065Z,1.70
2019-05-14T10:23:13.194Z,1.72
2019-05-14T10:28:19.302Z,1.35
2019-05-14T10:33:25.101Z,1.80
2019-05-14T10:38:30.727Z,1.42
2019-05-14T10:43:40.410Z,1.35
2019-05-14T10:48:46.373Z,1.40
2019-05-14T10:53:52.244Z,1.72
2019-05-14T10:58:58.382Z,2.10
2019-05-14T11:04:04.722Z,1.62
2019-05-14T11:09:10.963Z,1.67
2019-05-14T11:14:19.272Z,1.75
2019-05-14T11:19:24.812Z,1.52
2019-05-14T11:24:30.752Z,1.60
2019-05-14T11:29:38.536Z,1.85
2019-05-14T11:34:44.557Z,1.80
2019-05-14T11:39:50.412Z,2.10
2019-05-14T11:44:58.253Z,2.10
2019-05-14T11:50:03.993Z,1.55
2019-05-14T11:55:10.252Z,1.77
2019-05-14T12:00:16.262Z,1.60
2019-05-14T12:05:22.153Z,1.65
2019-05-14T12:10:29.265Z,1.87
2019-05-14T12:15:38.625Z,2.00
2019-05-14T12:20:43.833Z,1.45
2019-05-14T12:25:49.633Z,1.60
2019-05-14T12:30:58.334Z,1.30
2019-05-14T12:36:04.432Z,1.45
2019-05-14T12:41:10.962Z,1.62
2019-05-14T12:46:16.952Z,1.65
2019-05-14T12:51:22.952Z,1.72
2019-05-14T12:56:29.456Z,1.20
2019-05-14T13:01:35.916Z,1.70
2019-05-14T13:06:42.132Z,1.45
2019-05-14T13:11:47.976Z,1.20
2019-05-14T13:16:54.766Z,1.17
2019-05-14T13:22:13.095Z,1.47
2019-05-14T13:27:09.592Z,1.22
2019-05-14T13:32:16.222Z,1.20
2019-05-14T13:37:22.502Z,1.27
2019-05-14T13:42:29.569Z,1.20
2019-05-14T13:47:35.682Z,1.10
2019-05-14T13:52:58.303Z,1.10
2019-05-14T13:57:49.623Z,1.00
2019-05-14T14:02:55.784Z,0.90
2019-05-14T14:08:01.513Z,1.17
2019-05-14T14:13:11.085Z,1.22
2019-05-14T14:18:15.309Z,1.00
2019-05-14T14:23:26.848Z,1.10
2019-05-14T14:28:29.533Z,1.07
2019-05-14T14:33:38.924Z,1.10
2019-05-14T14:38:43.974Z,1.00
2019-05-14T14:43:53.863Z,1.00
2019-05-14T14:49:02.029Z,0.82
2019-05-14T14:54:10.904Z,1.10
2019-05-14T14:59:11.982Z,1.05
2019-05-14T15:04:19.424Z,1.20
2019-05-14T15:09:26.086Z,0.90
2019-05-14T15:14:31.793Z,1.10
2019-05-14T15:19:39.511Z,0.93
2019-05-14T15:24:44.832Z,1.07
2019-05-14T15:29:50.993Z,0.90
2019-05-14T15:34:59.423Z,0.82
2019-05-14T15:40:05.006Z,1.12
2019-05-14T15:45:11.862Z,1.45
2019-05-14T15:50:20.100Z,1.32
2019-05-14T15:55:28.888Z,1.45
2019-05-14T16:00:38.553Z,1.70
2019-05-14T16:05:44.712Z,1.20
2019-05-14T16:10:50.642Z,1.17
2019-05-14T16:15:56.872Z,1.30
2019-05-14T16:21:03.505Z,1.20
2019-05-14T16:26:09.392Z,1.50
2019-05-14T16:31:18.242Z,1.27
2019-05-14T16:36:23.901Z,1.60
2019-05-14T16:41:31.398Z,1.52
2019-05-14T16:46:38.447Z,1.30
2019-05-14T16:51:45.125Z,1.30
2019-05-14T16:56:51.386Z,1.40
2019-05-14T17:01:58.527Z,1.25
2019-05-14T17:07:04.792Z,1.60
2019-05-14T17:12:11.203Z,1.50
2019-05-14T17:17:17.202Z,1.82
2019-05-14T17:22:28.985Z,1.62
2019-05-14T17:27:31.445Z,1.57
2019-05-14T17:32:39.088Z,1.62
2019-05-14T17:37:48.181Z,1.70
2019-05-14T17:42:53.523Z,1.60
2019-05-14T17:48:00.344Z,1.70
2019-05-14T17:53:09.527Z,1.52
2019-05-14T17:58:14.822Z,2.40
2019-05-14T18:03:20.702Z,1.50
2019-05-14T18:08:30.003Z,1.80
2019-05-14T18:13:34.944Z,1.67
2019-05-14T18:18:40.641Z,1.60
2019-05-14T18:23:48.966Z,1.45
2019-05-14T18:28:53.881Z,1.50
2019-05-14T18:34:00.582Z,1.60
2019-05-14T18:39:09.268Z,1.60
2019-05-14T18:44:14.921Z,1.62
2019-05-14T18:49:21.521Z,1.52
2019-05-14T18:54:29.374Z,1.57
2019-05-14T18:59:39.143Z,1.62
2019-05-14T19:04:44.983Z,1.67
2019-05-14T19:09:51.882Z,1.57
2019-05-14T19:14:58.941Z,1.75
2019-05-14T19:20:05.202Z,1.82
2019-05-14T19:25:11.942Z,1.35
2019-05-14T19:30:19.183Z,1.67
2019-05-14T19:35:28.694Z,1.55
2019-05-14T19:40:34.738Z,1.52
2019-05-14T19:45:41.452Z,2.10
2019-05-14T19:50:49.079Z,1.82
2019-05-14T19:55:59.204Z,1.80
2019-05-14T20:01:04.252Z,1.87
2019-05-14T20:06:18.518Z,1.45
2019-05-14T20:11:43.392Z,1.77
2019-05-14T20:16:49.792Z,1.75
2019-05-14T20:21:55.863Z,1.57
2019-05-14T20:27:08.201Z,1.60
2019-05-14T20:32:10.552Z,1.50
2019-05-14T20:37:18.794Z,1.50
2019-05-14T20:42:24.521Z,1.95
2019-05-14T20:47:30.031Z,1.70
2019-05-14T20:52:37.452Z,1.47
2019-05-14T20:57:43.992Z,1.55
2019-05-14T21:02:50.133Z,1.52
2019-05-14T21:07:55.691Z,1.35
2019-05-14T21:13:02.007Z,1.17
2019-05-14T21:18:08.360Z,1.40
2019-05-14T21:23:19.192Z,1.20
2019-05-14T21:28:29.869Z,1.40
2019-05-14T21:33:33.752Z,1.20
2019-05-14T21:38:41.148Z,1.37
2019-05-14T21:43:49.177Z,1.20
2019-05-14T21:48:55.592Z,1.20
2019-05-14T21:54:01.844Z,1.42
2019-05-14T21:59:09.444Z,1.20
2019-05-14T22:04:18.446Z,1.40
2019-05-14T22:09:28.374Z,1.30
2019-05-14T22:14:33.323Z,1.32
2019-05-14T22:19:39.141Z,1.30
2019-05-14T22:24:46.286Z,1.00
2019-05-14T22:29:52.492Z,1.32
2019-05-14T22:34:58.550Z,1.40
2019-05-14T22:40:05.463Z,1.20
2019-05-14T22:45:12.182Z,1.20
2019-05-14T22:50:18.741Z,1.27
2019-05-14T22:55:24.473Z,1.37
2019-05-14T23:00:30.090Z,1.20
2019-05-14T23:05:35.971Z,1.05
2019-05-14T23:10:44.732Z,1.00
2019-05-14T23:15:51.181Z,1.15
2019-05-14T23:20:58.957Z,1.27
2019-05-14T23:26:04.694Z,1.20
2019-05-14T23:31:11.004Z,1.32
2019-05-14T23:36:21.122Z,1.15
2019-05-14T23:41:28.660Z,1.07
2019-05-14T23:46:38.193Z,1.12
2019-05-14T23:51:47.902Z,1.17
2019-05-14T23:56:53.912Z,1.07
